• Join FlightAware (Why Join?)
  • Login
  • US Flag 
04:12PM EDT


 

Airport Tracker/Info


-or-


 

Live Flight TrackerFlight Track Log ✈ N6GD ✈ 08-Jun-2014 ✈ KTKI - MYNN / NAS

Flight Track Log - Related Links

Times and Time Zones

All times are in EDT time to prevent confusion due to time zone crossing. See the N6GD flight status page for this flight to view local times or setup timezone preferences in your user account.

Time Position Orientation Groundspeed Altitude Reporting Facility
EDT Latitude Longitude Course Direction KTS MPH feet Rate Location/Type
08:11AM 33.1000 -96.5833 99° East 212 244 2,900  Level Dallas / Fort Worth TRACON
08:12AM 33.0403 -96.5778 176° South 239 275 5,400 2,100 Climbing Fort Worth Center
08:14AM 32.9389 -96.4878 143° Southeast 221 254 9,500 1,800 Climbing Fort Worth Center
08:15AM 32.8750 -96.4325 144° Southeast 282 325 10,900 1,740 Climbing Fort Worth Center
08:16AM 32.8276 -96.8018 99° East  Level FlightAware Approximate
08:16AM 32.7953 -96.3586 142° Southeast 333 383 13,100  Level Fort Worth Center
08:17AM 32.7589 -96.2558 113° Southeast 340 391 15,500 2,160 Climbing Fort Worth Center
08:18AM 32.7564 -96.1342 91° East 368 423 17,500 1,800 Climbing Fort Worth Center
08:19AM 32.7528 -96.0114 92° East 371 427 19,200 1,560 Climbing Fort Worth Center
08:20AM 32.7497 -95.8817 92° East 392 451 20,700 1,440 Climbing Fort Worth Center
08:21AM 32.7453 -95.7481 92° East 407 468 22,200 1,380 Climbing Fort Worth Center
08:22AM 32.7408 -95.6047 92° East 417 480 23,600 1,200 Climbing Fort Worth Center
08:23AM 32.7375 -95.4744 92° East 422 486 24,700 1,200 Climbing Fort Worth Center
08:24AM 32.7325 -95.3306 92° East 433 498 26,100 1,860 Climbing Fort Worth Center
08:25AM 32.7269 -95.1781 92° East 435 501 28,600 1,920 Climbing Fort Worth Center
08:26AM 32.7228 -95.0403 92° East 422 486 30,100 1,440 Climbing Fort Worth Center
08:27AM 32.7175 -94.9022 93° East 421 484 31,600 1,440 Climbing Fort Worth Center
08:28AM 32.7028 -94.7658 97° East 421 484 33,100 1,320 Climbing Fort Worth Center
08:29AM 32.6600 -94.6375 112° Southeast 420 483 34,300 1,080 Climbing Fort Worth Center
08:30AM 32.6156 -94.5086 112° Southeast 425 489 35,300 900 Climbing Fort Worth Center
08:31AM 32.5708 -94.3789 112° Southeast 425 489 36,200 780 Climbing Fort Worth Center
08:32AM 32.5261 -94.2492 112° Southeast 426 490 37,000 360 Climbing Fort Worth Center
08:33AM 32.4703 -94.0872 112° Southeast 451 519 37,000  Level Fort Worth Center
08:34AM 32.4219 -93.9478 112° Southeast 462 532 37,000  Level Fort Worth Center
08:35AM 32.3708 -93.8011 112° Southeast 481 554 37,000  Level Fort Worth Center
08:36AM 32.3175 -93.6517 113° Southeast 492 566 37,000  Level Fort Worth Center
08:37AM 32.2683 -93.5069 112° Southeast 480 552 37,000  Level Fort Worth Center
08:38AM 32.2181 -93.3633 112° Southeast 472 543 37,000  Level Fort Worth Center
08:39AM 32.1678 -93.2192 112° Southeast 475 547 37,000  Level Fort Worth Center
08:40AM 32.1119 -93.0603 112° Southeast 474 545 37,000  Level Fort Worth Center
08:41AM 32.0608 -92.9183 113° Southeast 471 542 37,000  Level Fort Worth Center
08:42AM 32.0239 -92.8167 113° Southeast 467 537 37,000  Level Houston Center
08:43AM 31.9686 -92.6789 115° Southeast 467 537 37,000  Level Houston Center
08:44AM 31.8864 -92.5633 130° Southeast 463 533 37,000  Level Houston Center
08:45AM 31.8000 -92.4494 132° Southeast 463 533 37,000  Level Houston Center
08:46AM 31.6944 -92.3144 133° Southeast 466 536 37,000 -60 Level Houston Center
08:47AM 31.6061 -92.2014 133° Southeast 466 536 36,900  Descending Houston Center
08:48AM 31.5164 -92.0861 132° Southeast 474 545 37,000  Climbing Houston Center
08:49AM 31.4358 -91.9825 132° Southeast 476 548 37,000  Level Houston Center
08:50AM 31.3444 -91.8658 133° Southeast 478 550 37,000  Level Houston Center
08:51AM 31.2353 -91.7256 132° Southeast 482 555 37,000  Level Houston Center
08:52AM 31.1431 -91.6094 133° Southeast 484 557 37,000  Level Houston Center
08:53AM 31.0506 -91.4942 133° Southeast 484 557 37,000  Level Houston Center
08:54AM 30.9592 -91.3783 133° Southeast 485 558 37,000  Level Houston Center
08:55AM 30.8678 -91.2625 133° Southeast 485 558 37,000  Level Houston Center
08:56AM 30.7767 -91.1492 133° Southeast 484 557 37,000  Level Houston Center
08:57AM 30.6783 -91.0231 132° Southeast 480 552 37,000 -60 Level Houston Center
08:58AM 30.5881 -90.9092 133° Southeast 480 552 36,900  Descending Houston Center
09:00AM 30.4967 -90.7975 134° Southeast 480 552 37,000  Climbing Houston Center
09:01AM 30.4056 -90.6850 133° Southeast 480 552 37,000  Level Houston Center
09:02AM 30.3161 -90.5722 133° Southeast 480 552 37,000  Level Houston Center
09:03AM 30.2247 -90.4606 133° Southeast 480 552 37,000  Level Houston Center
09:04AM 30.1481 -90.3006 119° Southeast 481 554 37,000  Level Houston Center
09:05AM 30.0981 -90.1592 112° Southeast 481 554 37,000  Level Houston Center
09:06AM 30.0478 -90.0200 113° Southeast 479 551 37,000  Level Houston Center
09:07AM 30.0000 -89.8803 112° Southeast 477 549 37,000  Level Houston Center
09:08AM 29.9517 -89.7417 112° Southeast 474 545 37,000  Level Houston Center
09:09AM 29.9033 -89.6044 112° Southeast 469 540 37,000  Level Houston Center
09:10AM 29.8447 -89.4389 112° Southeast 469 540 37,000  Level Houston Center
09:11AM 29.7956 -89.3008 112° Southeast 469 540 37,000  Level Houston Center
09:12AM 29.7472 -89.1622 112° Southeast 469 540 37,000  Level Houston Center
09:13AM 29.6972 -89.0253 113° Southeast 467 537 37,000  Level Houston Center
09:14AM 29.6483 -88.8889 112° Southeast 466 536 37,000  Level Houston Center
09:15AM 29.5994 -88.7528 112° Southeast 464 534 37,000  Level Houston Center
09:16AM 29.5403 -88.5908 113° Southeast 462 532 37,000  Level Houston Center
09:17AM 29.4917 -88.4558 112° Southeast 460 529 37,000  Level Houston Center
09:18AM 29.4411 -88.3194 113° Southeast 457 526 37,000  Level Houston Center
09:19AM 29.3922 -88.1864 113° Southeast 456 525 37,000  Level Houston Center
09:20AM 29.3417 -88.0517 113° Southeast 454 522 37,000  Level Houston Center
09:21AM 29.2928 -87.9186 113° Southeast 453 521 37,000  Level Houston Center
09:22AM 29.2442 -87.7869 113° Southeast 453 521 37,000  Level Houston Center
09:23AM 29.1944 -87.6553 113° Southeast 452 520 37,000  Level Houston Center
09:24AM 29.1458 -87.5236 113° Southeast 451 519 37,000  Level Houston Center
09:25AM 29.0867 -87.3664 113° Southeast 451 519 37,000  Level Houston Center
09:26AM 29.0361 -87.2356 114° Southeast 451 519 37,000  Level Houston Center
09:27AM 28.9872 -87.1042 113° Southeast 451 519 37,000  Level Houston Center
09:28AM 28.9367 -86.9739 114° Southeast 451 519 37,000  Level Houston Center
09:29AM 28.8878 -86.8453 113° Southeast 449 517 37,000  Level Houston Center
09:31AM 28.8186 -86.6650 114° Southeast 448 516 37,000  Level Jacksonville Center
09:32AM 28.7703 -86.5353 113° Southeast 443 510 37,000  Level Jacksonville Center
09:33AM 28.7214 -86.4103 114° Southeast 443 510 37,000  Level Jacksonville Center
09:34AM 28.6708 -86.2783 114° Southeast 443 510 37,000  Level Jacksonville Center
09:35AM 28.6197 -86.1514 115° Southeast 443 510 37,000  Level Jacksonville Center
09:36AM 28.5708 -86.0244 114° Southeast 438 504 37,000  Level Jacksonville Center
09:37AM 28.5197 -85.8978 115° Southeast 438 504 37,000  Level Jacksonville Center
09:38AM 28.4703 -85.7733 114° Southeast 438 504 37,000  Level Jacksonville Center
09:39AM 28.4189 -85.6469 115° Southeast 445 512 37,000  Level Jacksonville Center
09:40AM 28.3694 -85.5206 114° Southeast 440 506 37,000  Level Jacksonville Center
09:41AM 28.3197 -85.3942 114° Southeast 435 501 37,000  Level Jacksonville Center
09:42AM 28.2697 -85.2706 115° Southeast 435 501 37,000  Level Jacksonville Center
09:43AM 28.1842 -85.0506 114° Southeast 437 503 37,000  Level Miami Center
09:44AM 28.1344 -84.9256 114° Southeast 437 503 37,000  Level Miami Center
09:45AM 28.0842 -84.7994 114° Southeast 438 504 37,000  Level Miami Center
09:46AM 28.0364 -84.6742 113° Southeast 438 504 37,000  Level Miami Center
09:47AM 27.9875 -84.5492 114° Southeast 437 503 37,000  Level Miami Center
09:48AM 27.9319 -84.4089 114° Southeast 436 502 37,000  Level Miami Center
09:49AM 27.8833 -84.2853 114° Southeast 435 501 37,000  Level Miami Center
09:51AM 27.8342 -84.1603 114° Southeast 433 498 37,000  Level Miami Center
09:52AM 27.7861 -84.0361 114° Southeast 433 498 37,000  Level Miami Center
09:53AM 27.7378 -83.9133 114° Southeast 433 498 37,000  Level Miami Center
09:54AM 27.6783 -83.7644 114° Southeast 433 498 37,000  Level Miami Center
09:55AM 27.6281 -83.6417 115° Southeast 433 498 37,000  Level Miami Center
09:56AM 27.5789 -83.5175 114° Southeast 433 498 37,000  Level Miami Center
09:57AM 27.5286 -83.3925 114° Southeast 435 501 37,000  Level Miami Center
09:58AM 27.4800 -83.2686 114° Southeast 437 503 37,000  Level Miami Center
09:59AM 27.4300 -83.1447 114° Southeast 434 499 37,000  Level Miami Center
10:00AM 27.3681 -82.9953 115° Southeast 438 504 37,000  Level Miami Center
10:01AM 27.3186 -82.8714 114° Southeast 438 504 37,000  Level Miami Center
10:02AM 27.2633 -82.7372 115° Southeast 438 504 37,000  Level Miami Center
10:03AM 27.2158 -82.6242 115° Southeast 438 504 37,000  Level Miami Center
10:04AM 27.1669 -82.5039 115° Southeast 439 505 37,000  Level Miami Center
10:05AM 27.1056 -82.3544 115° Southeast 439 505 37,000  Level Miami Center
10:06AM 27.0531 -82.2283 115° Southeast 440 506 37,000  Level Miami Center
10:07AM 27.0022 -82.1047 115° Southeast 440 506 37,000  Level Miami Center
10:08AM 26.9511 -81.9794 115° Southeast 441 507 37,000  Level Miami Center
10:09AM 26.9000 -81.8550 115° Southeast 443 510 37,000  Level Miami Center
10:10AM 26.8467 -81.7289 115° Southeast 446 513 37,000  Level Miami Center
10:11AM 26.7856 -81.5828 115° Southeast 448 516 37,000  Level Miami Center
10:12AM 26.7294 -81.4511 115° Southeast 448 516 37,000 -60 Level Miami Center
10:13AM 26.6742 -81.3181 115° Southeast 449 517 36,900 -720 Descending Miami Center
10:14AM 26.6192 -81.1883 115° Southeast 448 516 35,600 -960 Descending Miami Center
10:15AM 26.5636 -81.0592 116° Southeast 444 511 35,000 -300 Descending Miami Center
10:16AM 26.5133 -80.9408 115° Southeast 441 507 35,000  Level Miami Center
10:17AM 26.4561 -80.8072 116° Southeast 447 514 35,000  Level Miami Center
10:18AM 26.4025 -80.6794 115° Southeast 450 518 35,000  Level Miami Center
10:19AM 26.3475 -80.5519 116° Southeast 452 520 35,000  Level Miami Center
10:20AM 26.2925 -80.4236 116° Southeast 454 522 35,000  Level Miami Center
10:21AM 26.2375 -80.2964 116° Southeast 454 522 35,000  Level Miami Center
10:22AM 26.1819 -80.1689 116° Southeast 454 522 35,000 -180 Level Miami Center
10:24AM 26.1267 -80.0417 116° Southeast 454 522 34,700 -1,260 Descending Miami Center
10:25AM 26.0619 -79.8944 116° Southeast 441 507 32,400 -2,100 Descending Miami Center
10:26AM 26.0083 -79.7706 116° Southeast 442 509 30,400 -1,980 Descending Miami Center
10:27AM 25.9531 -79.6442 116° Southeast 451 519 28,400 -1,920 Descending Miami Center
10:28AM 25.8964 -79.5153 116° Southeast 462 532 26,500 -1,920 Descending Miami Center
10:29AM 25.8389 -79.3844 116° Southeast 465 535 24,500 -1,980 Descending Miami Center
10:30AM 25.7833 -79.2600 116° Southeast 460 529 22,500 -2,160 Descending Miami Center
10:31AM 25.7189 -79.1147 116° Southeast 442 509 20,100 -1,740 Descending Miami Center
10:32AM 25.6656 -78.9969 117° Southeast 430 495 19,000 -540 Descending Miami Center
10:33AM 25.6147 -78.8811 116° Southeast 422 486 19,000 -660 Level Miami Center
10:34AM 25.5692 -78.7742 115° Southeast 386 444 17,700 -1,380 Descending Miami Center
10:35AM 25.5208 -78.6669 117° Southeast 384 442 16,200 -1,500 Descending Miami Center
10:36AM 25.4703 -78.5589 117° Southeast 390 449 14,600 -1,560 Descending Miami Center
10:37AM 25.4144 -78.4406 118° Southeast 376 433 13,000 -780 Descending Miami Center
10:38AM 25.3700 -78.3422 117° Southeast 365 420 13,000  Level Miami Center
10:39AM 25.3247 -78.2358 115° Southeast 372 428 13,000 -600 Level Miami Center
10:40AM 25.2850 -78.1397 115° Southeast 355 409 11,800 -1,200 Descending Miami Center